createdAt,value
2017-12-02T00:00:54.674Z,23.33
2017-12-02T00:03:21.686Z,24.05
2017-12-02T00:05:47.936Z,24.05
2017-12-02T00:08:15.950Z,26.27
2017-12-02T00:10:42.247Z,20.85
2017-12-02T00:13:08.489Z,24.75
2017-12-02T00:15:34.778Z,24.12
2017-12-02T00:18:01.837Z,23.48
2017-12-02T00:20:28.149Z,26.73
2017-12-02T00:22:54.476Z,24.95
2017-12-02T00:25:21.836Z,23.98
2017-12-02T00:27:48.145Z,24.52
2017-12-02T00:30:15.212Z,24.12
2017-12-02T00:35:13.407Z,24.60
2017-12-02T00:37:40.457Z,24.15
2017-12-02T00:40:07.493Z,25.45
2017-12-02T00:42:34.017Z,25.80
2017-12-02T00:45:00.363Z,25.60
2017-12-02T00:47:27.369Z,24.17
2017-12-02T00:49:53.745Z,22.98
2017-12-02T00:52:20.752Z,24.10
2017-12-02T00:54:47.060Z,23.77
2017-12-02T00:57:13.348Z,23.98
2017-12-02T00:59:40.410Z,23.08
2017-12-02T01:02:07.045Z,23.17
2017-12-02T01:04:33.333Z,23.05
2017-12-02T01:06:59.598Z,24.55
2017-12-02T01:09:25.876Z,22.13
2017-12-02T01:11:52.160Z,22.73
2017-12-02T01:14:18.446Z,23.65
2017-12-02T01:16:44.783Z,24.63
2017-12-02T01:19:11.012Z,22.15
2017-12-02T01:21:37.295Z,25.42
2017-12-02T01:24:03.583Z,24.15
2017-12-02T01:26:29.837Z,23.42
2017-12-02T01:28:56.449Z,23.87
2017-12-02T01:31:23.438Z,23.62
2017-12-02T01:33:49.692Z,23.08
2017-12-02T01:36:15.969Z,23.85
2017-12-02T01:38:42.200Z,22.20
2017-12-02T01:41:08.488Z,23.52
2017-12-02T01:43:34.763Z,23.60
2017-12-02T01:46:00.994Z,23.55
2017-12-02T01:48:27.312Z,25.17
2017-12-02T01:50:53.551Z,21.90
2017-12-02T01:53:19.804Z,22.20
2017-12-02T01:55:46.047Z,21.67
2017-12-02T01:58:12.299Z,20.77
2017-12-02T02:00:38.640Z,23.30
2017-12-02T02:03:05.266Z,23.50
2017-12-02T02:05:31.524Z,23.27
2017-12-02T02:07:57.743Z,23.75
2017-12-02T02:10:24.031Z,22.80
2017-12-02T02:12:51.014Z,23.48
2017-12-02T02:15:17.288Z,22.42
2017-12-02T02:17:43.811Z,22.52
2017-12-02T02:20:10.791Z,22.55
2017-12-02T02:22:37.800Z,23.00
2017-12-02T02:25:04.101Z,20.55
2017-12-02T02:27:30.347Z,23.35
2017-12-02T02:29:56.926Z,24.37
2017-12-02T02:32:23.910Z,24.02
2017-12-02T02:34:50.140Z,22.92
2017-12-02T02:37:16.728Z,22.65
2017-12-02T02:39:43.733Z,22.30
2017-12-02T02:42:09.967Z,24.05
2017-12-02T02:44:36.282Z,23.50
2017-12-02T02:47:02.535Z,23.27
2017-12-02T02:49:28.761Z,22.60
2017-12-02T02:51:55.034Z,20.75
2017-12-02T02:54:21.266Z,21.40
2017-12-02T02:56:47.540Z,22.08
2017-12-02T02:59:13.904Z,21.50
2017-12-02T03:01:40.128Z,21.65
2017-12-02T03:04:07.426Z,21.83
2017-12-02T03:06:33.657Z,23.02
2017-12-02T03:08:59.926Z,22.40
2017-12-02T03:11:26.977Z,21.55
2017-12-02T03:13:53.983Z,21.55
2017-12-02T03:16:20.275Z,20.05
2017-12-02T03:18:46.810Z,21.85
2017-12-02T03:21:13.074Z,21.12
2017-12-02T03:23:39.326Z,20.55
2017-12-02T03:26:06.386Z,18.85
2017-12-02T03:28:32.666Z,22.33
2017-12-02T03:30:58.943Z,20.42
2017-12-02T03:33:25.555Z,21.25
2017-12-02T03:35:51.855Z,22.83
2017-12-02T03:38:18.163Z,17.23
2017-12-02T03:40:44.510Z,20.35
2017-12-02T03:43:11.582Z,21.37
2017-12-02T03:45:37.850Z,20.40
2017-12-02T03:48:04.163Z,21.08
2017-12-02T03:50:31.175Z,21.73
2017-12-02T03:52:57.477Z,21.58
2017-12-02T03:55:23.779Z,21.48
2017-12-02T03:57:50.079Z,21.33
2017-12-02T04:00:16.829Z,22.08
2017-12-02T04:02:43.850Z,21.12
2017-12-02T04:05:10.153Z,21.62
2017-12-02T04:07:36.432Z,21.15
2017-12-02T04:10:03.461Z,20.70
2017-12-02T04:12:29.806Z,21.35
2017-12-02T04:14:56.854Z,19.83
2017-12-02T04:17:23.920Z,22.30
2017-12-02T04:19:50.226Z,21.42
2017-12-02T04:22:17.243Z,22.27
2017-12-02T04:24:43.539Z,23.70
2017-12-02T04:27:09.865Z,22.77
2017-12-02T04:29:36.159Z,22.60
2017-12-02T04:32:02.737Z,24.08
2017-12-02T04:34:29.014Z,23.40
2017-12-02T04:36:56.050Z,23.65
2017-12-02T04:39:22.342Z,19.80
2017-12-02T04:41:48.628Z,22.62
2017-12-02T04:44:14.932Z,22.15
2017-12-02T04:46:41.199Z,23.58
2017-12-02T04:49:07.475Z,26.15
2017-12-02T04:51:33.756Z,21.92
2017-12-02T04:54:00.071Z,23.92
2017-12-02T04:56:26.414Z,23.62
2017-12-02T04:58:52.765Z,22.17
2017-12-02T05:01:19.060Z,22.95
2017-12-02T05:03:45.382Z,24.75
2017-12-02T05:06:12.498Z,23.38
2017-12-02T05:08:38.800Z,23.27
2017-12-02T05:11:05.121Z,24.00
2017-12-02T05:13:31.436Z,22.20
2017-12-02T05:15:57.705Z,22.87
2017-12-02T05:18:24.396Z,21.08
2017-12-02T05:20:50.673Z,22.10
2017-12-02T05:23:16.950Z,20.70
2017-12-02T05:25:43.289Z,20.45
2017-12-02T05:28:09.564Z,20.60
2017-12-02T05:30:35.854Z,20.75
2017-12-02T05:33:02.178Z,22.20
2017-12-02T05:35:28.444Z,20.60
2017-12-02T05:37:54.789Z,20.58
2017-12-02T05:40:21.849Z,20.00
2017-12-02T05:42:48.163Z,20.95
2017-12-02T05:45:15.204Z,19.33
2017-12-02T05:47:42.261Z,21.02
2017-12-02T05:50:09.283Z,20.25
2017-12-02T05:52:35.560Z,20.80
2017-12-02T05:55:01.917Z,21.33
2017-12-02T05:57:28.219Z,19.52
2017-12-02T05:59:54.572Z,18.12
2017-12-02T06:02:20.853Z,19.12
2017-12-02T06:04:47.883Z,22.50
2017-12-02T06:07:14.195Z,20.60
2017-12-02T06:09:40.485Z,22.30
2017-12-02T06:12:06.766Z,20.73
2017-12-02T06:14:33.056Z,22.58
2017-12-02T06:16:59.335Z,20.77
2017-12-02T06:19:26.364Z,21.12
2017-12-02T06:21:52.664Z,22.05
2017-12-02T06:24:18.940Z,22.85
2017-12-02T06:26:46.283Z,21.27
2017-12-02T06:29:13.320Z,24.00
2017-12-02T06:31:40.357Z,23.17
2017-12-02T06:34:06.664Z,38.15
2017-12-02T06:36:32.952Z,27.33
2017-12-02T06:38:59.282Z,27.45
2017-12-02T06:41:25.563Z,25.20
2017-12-02T06:43:51.885Z,23.02
2017-12-02T06:46:18.192Z,22.65
2017-12-02T06:48:44.499Z,23.15
2017-12-02T06:51:10.799Z,22.55
2017-12-02T06:53:37.820Z,23.42
2017-12-02T06:56:04.111Z,24.27
2017-12-02T06:58:30.466Z,24.73
2017-12-02T07:00:57.074Z,25.77
2017-12-02T07:03:23.396Z,23.90
2017-12-02T07:05:49.728Z,23.55
2017-12-02T07:08:16.066Z,23.33
2017-12-02T07:10:42.424Z,22.27
2017-12-02T07:13:08.754Z,23.83
2017-12-02T07:15:35.086Z,22.60
2017-12-02T07:18:01.746Z,23.45
2017-12-02T07:20:28.070Z,23.20
2017-12-02T07:22:54.373Z,23.17
2017-12-02T07:25:20.679Z,24.23
2017-12-02T07:27:47.032Z,24.15
2017-12-02T07:30:13.359Z,22.65
2017-12-02T07:32:39.647Z,23.40
2017-12-02T07:35:05.947Z,23.92
2017-12-02T07:37:32.974Z,22.52
2017-12-02T07:39:59.626Z,22.73
2017-12-02T07:42:25.939Z,24.40
2017-12-02T07:44:52.269Z,24.63
2017-12-02T07:47:18.593Z,24.87
2017-12-02T07:49:44.891Z,24.45
2017-12-02T07:52:12.137Z,22.27
2017-12-02T07:54:38.537Z,23.10
2017-12-02T07:57:05.555Z,22.48
2017-12-02T07:59:32.012Z,23.83
2017-12-02T08:02:00.667Z,21.10
2017-12-02T08:04:26.946Z,22.42
2017-12-02T08:06:53.265Z,21.45
2017-12-02T08:09:19.553Z,22.17
2017-12-02T08:14:18.114Z,22.95
2017-12-02T08:16:44.394Z,20.48
2017-12-02T08:19:10.718Z,23.62
2017-12-02T08:21:37.014Z,22.48
2017-12-02T08:24:03.353Z,20.70
2017-12-02T08:26:30.680Z,23.15
2017-12-02T08:28:56.980Z,21.23
2017-12-02T08:31:23.299Z,24.12
2017-12-02T08:33:50.315Z,22.87
2017-12-02T08:38:48.594Z,20.90
2017-12-02T08:41:14.894Z,21.35
2017-12-02T08:43:41.179Z,21.60
2017-12-02T08:46:07.501Z,22.20
2017-12-02T08:48:34.665Z,23.20
2017-12-02T08:51:01.154Z,23.25
2017-12-02T08:53:27.446Z,21.10
2017-12-02T08:55:53.713Z,22.20
2017-12-02T08:58:20.066Z,20.35
2017-12-02T09:00:46.456Z,21.17
2017-12-02T09:03:13.246Z,22.17
2017-12-02T09:05:39.736Z,21.58
2017-12-02T09:08:06.068Z,20.27
2017-12-02T09:10:32.337Z,22.87
2017-12-02T09:12:59.404Z,22.25
2017-12-02T09:15:25.729Z,25.15
2017-12-02T09:17:52.046Z,24.87
2017-12-02T09:20:19.108Z,21.08
2017-12-02T09:22:45.438Z,22.37
2017-12-02T09:25:11.732Z,23.30
2017-12-02T09:27:38.068Z,23.67
2017-12-02T09:30:04.365Z,22.83
2017-12-02T09:32:30.670Z,22.13
2017-12-02T09:34:57.013Z,23.27
2017-12-02T09:37:23.323Z,22.13
2017-12-02T09:39:49.615Z,22.85
2017-12-02T09:42:16.645Z,22.13
2017-12-02T09:44:42.953Z,23.10
2017-12-02T09:47:09.261Z,22.02
2017-12-02T09:49:35.622Z,22.75
2017-12-02T09:52:02.015Z,20.80
2017-12-02T09:54:28.581Z,24.27
2017-12-02T09:56:55.363Z,22.92
2017-12-02T09:59:22.430Z,21.58
2017-12-02T10:01:48.717Z,21.27
2017-12-02T10:04:15.856Z,21.87
2017-12-02T10:06:42.150Z,25.83
2017-12-02T10:09:08.490Z,21.02
2017-12-02T10:11:34.812Z,21.37
2017-12-02T10:14:01.113Z,23.40
2017-12-02T10:16:27.391Z,21.48
2017-12-02T10:18:53.726Z,20.58
2017-12-02T10:21:20.058Z,21.20
2017-12-02T10:23:47.310Z,21.08
2017-12-02T10:26:13.819Z,19.33
2017-12-02T10:28:40.144Z,21.08
2017-12-02T10:31:06.481Z,20.62
2017-12-02T10:33:32.826Z,21.05
2017-12-02T10:35:59.163Z,18.90
2017-12-02T10:38:26.185Z,20.85
2017-12-02T10:40:53.858Z,19.92
2017-12-02T10:43:20.237Z,19.80
2017-12-02T10:45:46.537Z,20.20
2017-12-02T10:48:13.625Z,20.65
2017-12-02T10:50:39.937Z,19.37
2017-12-02T10:53:06.222Z,20.33
2017-12-02T10:55:32.583Z,22.15
2017-12-02T10:57:58.915Z,20.40
2017-12-02T11:00:25.258Z,20.10
2017-12-02T11:02:51.556Z,18.55
2017-12-02T11:05:18.584Z,21.15
2017-12-02T11:07:44.878Z,20.90
2017-12-02T11:10:11.219Z,19.25
2017-12-02T11:12:37.510Z,20.62
2017-12-02T11:15:05.790Z,18.17
2017-12-02T11:17:32.075Z,19.45
2017-12-02T11:19:58.382Z,20.20
2017-12-02T11:22:24.681Z,19.77
2017-12-02T11:24:50.944Z,19.42
2017-12-02T11:27:17.245Z,17.92
2017-12-02T11:29:43.844Z,17.12
2017-12-02T11:32:10.848Z,16.90
2017-12-02T11:34:37.135Z,18.35
2017-12-02T11:37:03.444Z,18.65
2017-12-02T11:39:30.480Z,18.42
2017-12-02T11:41:56.760Z,18.62
2017-12-02T11:44:23.100Z,19.23
2017-12-02T11:46:49.348Z,19.15
2017-12-02T11:49:15.615Z,18.80
2017-12-02T11:51:41.907Z,20.35
2017-12-02T11:54:08.201Z,19.12
2017-12-02T11:56:34.435Z,19.73
2017-12-02T11:59:00.752Z,18.02
2017-12-02T12:01:26.990Z,18.33
2017-12-02T12:03:53.271Z,18.42
2017-12-02T12:06:20.275Z,17.75
2017-12-02T12:08:46.516Z,16.00
2017-12-02T12:11:12.773Z,15.65
2017-12-02T12:13:39.036Z,15.95
2017-12-02T12:16:05.619Z,17.02
2017-12-02T12:18:32.045Z,15.55
2017-12-02T12:20:59.023Z,15.90
2017-12-02T12:23:25.334Z,15.88
2017-12-02T12:25:51.627Z,15.00
2017-12-02T12:28:17.881Z,16.02
2017-12-02T12:30:44.882Z,17.05
2017-12-02T12:33:11.138Z,16.45
2017-12-02T12:35:37.392Z,16.50
2017-12-02T12:38:04.457Z,16.80
2017-12-02T12:40:30.697Z,14.65
2017-12-02T12:42:57.011Z,15.77
2017-12-02T12:45:23.309Z,11.57
2017-12-02T12:47:50.315Z,14.32
2017-12-02T12:50:16.599Z,15.20
2017-12-02T12:52:42.952Z,14.65
2017-12-02T12:55:09.229Z,13.52
2017-12-02T12:57:35.512Z,13.82
2017-12-02T13:00:01.856Z,13.90
2017-12-02T13:02:28.113Z,14.35
2017-12-02T13:04:54.413Z,12.85
2017-12-02T13:07:20.694Z,13.95
2017-12-02T13:09:47.010Z,13.98
2017-12-02T13:12:13.273Z,13.85
2017-12-02T13:14:39.527Z,13.10
2017-12-02T13:17:06.112Z,13.40
2017-12-02T13:19:32.426Z,13.27
2017-12-02T13:21:59.430Z,13.18
2017-12-02T13:24:25.728Z,13.05
2017-12-02T13:26:53.192Z,11.15
2017-12-02T13:29:19.470Z,13.10
2017-12-02T13:31:45.750Z,11.95
2017-12-02T13:34:11.977Z,13.00
2017-12-02T13:36:38.287Z,13.68
2017-12-02T13:39:04.613Z,14.35
2017-12-02T13:41:32.649Z,13.02
2017-12-02T13:43:59.181Z,13.43
2017-12-02T13:46:25.481Z,12.63
2017-12-02T13:48:51.752Z,13.95
2017-12-02T13:51:18.779Z,15.35
2017-12-02T13:53:45.072Z,13.98
2017-12-02T13:56:11.326Z,15.00
2017-12-02T13:58:38.102Z,14.68
2017-12-02T14:01:04.334Z,14.45
2017-12-02T14:03:30.663Z,16.05
2017-12-02T14:05:56.936Z,15.48
2017-12-02T14:08:23.180Z,16.65
2017-12-02T14:10:51.300Z,16.90
2017-12-02T14:13:17.773Z,15.70
2017-12-02T14:15:44.038Z,18.80
2017-12-02T14:18:11.102Z,16.08
2017-12-02T14:20:37.816Z,15.80
2017-12-02T14:23:04.820Z,16.67
2017-12-02T14:25:31.093Z,14.90
2017-12-02T14:27:58.084Z,14.35
2017-12-02T14:30:24.364Z,14.25
2017-12-02T14:32:51.394Z,14.02
2017-12-02T14:35:17.646Z,14.65
2017-12-02T14:37:45.458Z,15.27
2017-12-02T14:40:11.727Z,15.55
2017-12-02T14:42:38.713Z,17.12
2017-12-02T14:45:05.002Z,16.58
2017-12-02T14:47:31.991Z,17.48
2017-12-02T14:49:58.285Z,16.52
2017-12-02T14:52:24.565Z,17.60
2017-12-02T14:54:50.827Z,19.15
2017-12-02T14:57:17.886Z,17.17
2017-12-02T14:59:44.165Z,17.40
2017-12-02T15:02:10.487Z,20.85
2017-12-02T15:04:36.747Z,18.00
2017-12-02T15:07:03.021Z,18.65
2017-12-02T15:09:29.305Z,19.45
2017-12-02T15:11:56.351Z,18.87
2017-12-02T15:14:23.365Z,19.90
2017-12-02T15:16:49.652Z,16.60
2017-12-02T15:19:15.888Z,17.73
2017-12-02T15:21:42.523Z,18.25
2017-12-02T15:24:08.834Z,18.33
2017-12-02T15:26:35.165Z,17.17
2017-12-02T15:29:01.437Z,16.33
2017-12-02T15:31:27.731Z,18.15
2017-12-02T15:33:53.994Z,16.10
2017-12-02T15:36:20.299Z,15.05
2017-12-02T15:38:46.576Z,13.80
2017-12-02T15:41:12.966Z,15.35
2017-12-02T15:43:39.251Z,14.15
2017-12-02T15:46:07.481Z,17.00
2017-12-02T15:48:33.824Z,17.50
2017-12-02T15:51:05.267Z,16.80
2017-12-02T15:53:32.644Z,11.38
2017-12-02T15:55:59.701Z,14.20
2017-12-02T15:58:26.893Z,13.05
2017-12-02T16:00:53.345Z,13.00
2017-12-02T16:03:19.665Z,11.60
2017-12-02T16:05:46.204Z,12.15
2017-12-02T16:08:12.501Z,12.25
2017-12-02T16:10:38.820Z,11.20
2017-12-02T16:13:05.137Z,14.15
2017-12-02T16:15:32.170Z,13.10
2017-12-02T16:17:59.289Z,14.07
2017-12-02T16:20:26.715Z,17.40
2017-12-02T16:22:53.195Z,17.70
2017-12-02T16:25:19.588Z,18.87
2017-12-02T16:27:45.925Z,17.17
2017-12-02T16:30:12.231Z,18.33
2017-12-02T16:32:38.501Z,18.83
2017-12-02T16:35:04.837Z,18.67
2017-12-02T16:37:31.127Z,20.33
2017-12-02T16:39:57.365Z,20.55
2017-12-02T16:42:23.683Z,18.42
2017-12-02T16:44:50.064Z,16.90
2017-12-02T16:47:17.110Z,18.23
2017-12-02T16:49:44.328Z,18.55
2017-12-02T16:52:10.638Z,19.00
2017-12-02T16:54:37.256Z,19.70
2017-12-02T16:57:03.578Z,15.15
2017-12-02T16:59:29.863Z,15.63
2017-12-02T17:01:56.174Z,12.70
2017-12-02T17:04:22.532Z,10.38
2017-12-02T17:06:49.621Z,9.68
2017-12-02T17:09:15.948Z,11.15
2017-12-02T17:11:48.392Z,11.55
2017-12-02T17:14:15.515Z,11.35
2017-12-02T17:16:41.853Z,10.75
2017-12-02T17:19:08.961Z,10.20
2017-12-02T17:21:35.319Z,9.15
2017-12-02T17:24:01.588Z,8.48
2017-12-02T17:26:27.979Z,9.23
2017-12-02T17:28:54.466Z,9.65
2017-12-02T17:31:20.735Z,7.45
2017-12-02T17:33:47.093Z,7.60
2017-12-02T17:36:14.172Z,7.07
2017-12-02T17:38:40.590Z,6.93
2017-12-02T17:41:06.972Z,8.32
2017-12-02T17:43:33.344Z,7.78
2017-12-02T17:45:59.751Z,8.60
2017-12-02T17:48:26.890Z,7.50
2017-12-02T17:50:53.930Z,8.15
2017-12-02T17:53:20.253Z,8.35
2017-12-02T17:55:46.548Z,7.40
2017-12-02T17:58:12.897Z,7.87
2017-12-02T18:00:39.249Z,8.13
2017-12-02T18:03:05.491Z,10.15
2017-12-02T18:05:32.550Z,10.35
2017-12-02T18:07:59.118Z,8.18
2017-12-02T18:10:25.673Z,9.20
2017-12-02T18:12:52.130Z,11.18
2017-12-02T18:15:19.175Z,9.20
2017-12-02T18:17:46.524Z,9.98
2017-12-02T18:20:13.560Z,9.10
2017-12-02T18:22:39.924Z,9.70
2017-12-02T18:25:06.970Z,9.48
2017-12-02T18:27:33.308Z,10.40
2017-12-02T18:29:59.617Z,8.75
2017-12-02T18:32:26.697Z,9.32
2017-12-02T18:34:52.984Z,9.32
2017-12-02T18:37:20.103Z,10.57
2017-12-02T18:39:47.124Z,9.60
2017-12-02T18:42:13.384Z,10.00
2017-12-02T18:44:40.096Z,10.52
2017-12-02T18:47:07.149Z,9.25
2017-12-02T18:49:33.444Z,9.32
2017-12-02T18:51:59.764Z,8.55
2017-12-02T18:54:26.022Z,9.77
2017-12-02T18:56:52.312Z,11.18
2017-12-02T18:59:19.416Z,10.13
2017-12-02T19:01:45.727Z,10.82
2017-12-02T19:04:12.051Z,10.57
2017-12-02T19:06:38.433Z,11.48
2017-12-02T19:09:05.518Z,11.80
2017-12-02T19:11:31.903Z,12.20
2017-12-02T19:13:58.213Z,11.07
2017-12-02T19:16:24.541Z,12.65
2017-12-02T19:18:51.225Z,12.60
2017-12-02T19:21:17.647Z,12.27
2017-12-02T19:23:43.937Z,11.70
2017-12-02T19:26:10.265Z,12.77
2017-12-02T19:28:36.564Z,12.18
2017-12-02T19:31:03.439Z,12.10
2017-12-02T19:33:29.775Z,13.02
2017-12-02T19:35:56.094Z,15.10
2017-12-02T19:38:22.397Z,13.27
2017-12-02T19:40:48.754Z,14.82
2017-12-02T19:43:15.118Z,13.85
2017-12-02T19:45:41.567Z,12.98
2017-12-02T19:48:07.924Z,13.13
2017-12-02T19:50:34.306Z,14.65
2017-12-02T19:53:01.435Z,14.30
2017-12-02T19:55:28.528Z,15.52
2017-12-02T19:57:54.939Z,16.02
2017-12-02T20:00:21.353Z,16.00
2017-12-02T20:02:48.464Z,17.62
2017-12-02T20:05:15.176Z,16.30
2017-12-02T20:07:41.481Z,17.00
2017-12-02T20:10:07.871Z,17.25
2017-12-02T20:12:34.242Z,15.73
2017-12-02T20:15:00.656Z,16.98
2017-12-02T20:17:27.836Z,16.30
2017-12-02T20:19:54.299Z,17.80
2017-12-02T20:22:20.678Z,15.57
2017-12-02T20:24:47.145Z,16.83
2017-12-02T20:27:13.504Z,15.40
2017-12-02T20:29:40.219Z,16.42
2017-12-02T20:32:06.629Z,15.75
2017-12-02T20:34:32.962Z,16.77
2017-12-02T20:36:59.346Z,16.73
2017-12-02T20:39:25.657Z,17.48
2017-12-02T20:41:52.041Z,18.08
2017-12-02T20:44:18.396Z,17.62
2017-12-02T20:46:44.744Z,16.67
2017-12-02T20:49:11.100Z,18.45
2017-12-02T20:51:37.434Z,18.48
2017-12-02T20:54:04.531Z,18.83
2017-12-02T20:56:30.910Z,18.98
2017-12-02T20:58:58.013Z,19.77
2017-12-02T21:01:24.355Z,17.98
2017-12-02T21:03:50.705Z,17.25
2017-12-02T21:06:17.031Z,20.90
2017-12-02T21:08:43.309Z,19.15
2017-12-02T21:11:09.666Z,18.23
2017-12-02T21:13:36.064Z,21.00
2017-12-02T21:16:02.718Z,20.40
2017-12-02T21:18:29.104Z,20.40
2017-12-02T21:20:55.435Z,18.70
2017-12-02T21:23:22.511Z,19.87
2017-12-02T21:25:48.914Z,18.42
2017-12-02T21:28:15.960Z,19.85
2017-12-02T21:30:43.253Z,19.75
2017-12-02T21:33:09.614Z,20.12
2017-12-02T21:35:35.934Z,19.35
2017-12-02T21:38:02.330Z,21.73
2017-12-02T21:40:28.730Z,18.33
2017-12-02T21:42:55.826Z,15.82
2017-12-02T21:45:22.186Z,16.62
2017-12-02T21:47:48.524Z,16.67
2017-12-02T21:50:14.870Z,18.17
2017-12-02T21:52:41.238Z,17.65
2017-12-02T21:55:07.575Z,20.50
2017-12-02T21:57:33.929Z,20.25
2017-12-02T22:00:00.281Z,17.25
2017-12-02T22:02:27.329Z,19.65
2017-12-02T22:04:54.357Z,18.20
2017-12-02T22:07:20.688Z,17.30
2017-12-02T22:09:47.785Z,18.08
2017-12-02T22:12:14.158Z,17.77
2017-12-02T22:14:40.469Z,18.90
2017-12-02T22:17:06.827Z,17.37
2017-12-02T22:19:33.179Z,21.55
2017-12-02T22:22:00.555Z,18.48
2017-12-02T22:24:26.905Z,18.10
2017-12-02T22:26:53.223Z,17.48
2017-12-02T22:29:19.592Z,19.05
2017-12-02T22:31:46.705Z,19.15
2017-12-02T22:34:12.987Z,17.33
2017-12-02T22:36:40.032Z,18.05
2017-12-02T22:39:07.078Z,17.70
2017-12-02T22:41:34.116Z,18.90
2017-12-02T22:44:01.146Z,20.17
2017-12-02T22:46:27.474Z,20.33
2017-12-02T22:48:53.765Z,19.62
2017-12-02T22:51:20.062Z,19.92
2017-12-02T22:53:46.414Z,20.75
2017-12-02T22:56:13.558Z,21.80
2017-12-02T22:58:39.839Z,22.35
2017-12-02T23:01:06.145Z,20.60
2017-12-02T23:03:32.719Z,21.35
2017-12-02T23:05:59.750Z,20.80
2017-12-02T23:08:26.032Z,20.60
2017-12-02T23:10:52.343Z,19.50
2017-12-02T23:13:18.639Z,21.05
2017-12-02T23:15:45.688Z,19.33
2017-12-02T23:18:12.351Z,20.05
2017-12-02T23:20:38.672Z,20.50
2017-12-02T23:23:05.671Z,19.02
2017-12-02T23:25:32.013Z,19.50
2017-12-02T23:27:58.282Z,22.35
2017-12-02T23:30:24.582Z,20.40
2017-12-02T23:32:51.622Z,21.62
2017-12-02T23:35:17.902Z,20.83
2017-12-02T23:37:44.141Z,21.30
2017-12-02T23:40:10.423Z,21.48
2017-12-02T23:42:37.400Z,20.55
2017-12-02T23:45:03.655Z,21.75
2017-12-02T23:47:29.920Z,21.48
2017-12-02T23:49:56.899Z,19.52
2017-12-02T23:52:23.151Z,20.58
2017-12-02T23:54:49.461Z,22.02
2017-12-02T23:57:15.753Z,19.73
2017-12-02T23:59:42.750Z,21.90
